Time;durP1;ratioP1;P1;durP2;ratioP2;P2;SDS_P1;SDS_P2;PMS_P1;PMS_P2;Temp;Humidity;BMP_temperature;BMP_pressure;BME280_temperature;BME280_humidity;BME280_pressure;Samples;Min_cycle;Max_cycle;Signal;HPM_P1;HPM_P2
2022/05/30 03:58:15;;;;;;;3.22;2.05;;;;;;;14.86;71.91;99947.59;5606683;31;79289;-55
2022/05/30 04:01:18;;;;;;;3.67;2.03;;;;;;;14.86;71.91;99947.59;5583859;31;34301;-55
2022/05/30 04:04:21;;;;;;;2.72;1.83;;;;;;;14.58;69.54;99945.22;5584126;32;33608;-55
2022/05/30 04:07:23;;;;;;;3.87;2.17;;;;;;;14.67;65.77;99942.50;5583924;31;33350;-56
2022/05/30 04:10:27;;;;;;;3.20;1.75;;;;;;;14.70;72.68;99952.66;5584126;31;33338;-55
2022/05/30 04:13:31;;;;;;;5.10;2.05;;;;;;;14.75;71.42;99950.63;5583980;31;33003;-55
2022/05/30 04:16:36;;;;;;;3.62;2.17;;;;;;;14.96;68.54;99956.16;5583617;32;33239;-55
2022/05/30 04:19:38;;;;;;;2.87;1.80;;;;;;;14.76;67.55;99946.81;5583994;31;34103;-55
2022/05/30 04:22:41;;;;;;;3.92;1.95;;;;;;;14.70;72.76;99952.66;5583968;31;33284;-55
2022/05/30 04:25:44;;;;;;;3.83;1.80;;;;;;;14.74;62.92;99954.44;5583734;31;34298;-55
2022/05/30 04:28:47;;;;;;;3.47;2.17;;;;;;;14.92;59.34;99957.13;5583938;31;33154;-55
2022/05/30 04:31:51;;;;;;;2.78;1.60;;;;;;;14.92;61.65;99965.22;5583858;31;33340;-55
2022/05/30 04:34:54;;;;;;;3.08;1.95;;;;;;;14.97;63.01;99963.16;5583626;31;32599;-55
2022/05/30 04:37:56;;;;;;;4.10;2.17;;;;;;;14.98;61.73;99969.34;5566960;31;33698;-55
2022/05/30 04:41:00;;;;;;;3.22;2.05;;;;;;;14.97;69.35;99979.34;5564109;32;34393;-55
2022/05/30 04:44:05;;;;;;;2.80;1.92;;;;;;;15.00;65.86;99978.72;5564131;32;33233;-55
2022/05/30 04:47:12;;;;;;;4.27;2.00;;;;;;;15.06;66.98;99986.63;5563991;32;34480;-56
2022/05/30 04:50:17;;;;;;;4.07;2.03;;;;;;;15.06;63.96;99981.22;5563972;32;33405;-56
2022/05/30 04:53:20;;;;;;;3.10;1.85;;;;;;;15.07;63.60;99988.25;5564167;32;34313;-55
2022/05/30 04:56:23;;;;;;;3.50;2.12;;;;;;;15.19;63.41;99989.16;5563760;32;33710;-55
2022/05/30 04:59:26;;;;;;;4.97;2.28;;;;;;;15.19;63.12;99991.06;5564241;32;33319;-55
2022/05/30 05:02:30;;;;;;;4.55;2.25;;;;;;;15.15;63.53;99990.12;5563926;32;33261;-55
2022/05/30 05:05:33;;;;;;;4.05;1.83;;;;;;;15.13;63.07;99993.16;5563861;32;33668;-55
2022/05/30 05:08:43;;;;;;;4.28;2.00;;;;;;;15.18;63.43;99981.38;5555115;32;33149;-55
2022/05/30 05:11:49;;;;;;;3.30;2.28;;;;;;;15.23;64.35;99997.41;5550896;32;33278;-55
2022/05/30 05:14:55;;;;;;;2.35;1.92;;;;;;;15.21;64.92;100000.44;5550733;32;32248;-55
2022/05/30 05:18:00;;;;;;;3.40;1.90;;;;;;;15.31;67.50;100010.09;5550450;32;34227;-56
2022/05/30 05:21:02;;;;;;;3.85;2.20;;;;;;;15.25;63.75;100003.28;5550427;32;33497;-55
2022/05/30 05:24:06;;;;;;;2.72;2.15;;;;;;;15.33;65.29;99999.78;5549221;32;33699;-55
2022/05/30 05:27:13;;;;;;;;;;;;;;;15.46;73.41;100017.72;5550719;32;34433;-56
2022/05/30 05:30:16;;;;;;;3.40;2.37;;;;;;;15.52;71.05;100021.00;5550379;32;33856;-55
2022/05/30 05:33:18;;;;;;;4.18;2.10;;;;;;;15.57;66.04;100018.16;5550717;32;33314;-55
2022/05/30 05:36:23;;;;;;;3.75;2.28;;;;;;;15.58;69.81;100027.84;5549463;32;33326;-56
2022/05/30 05:39:29;;;;;;;6.22;2.40;;;;;;;15.64;73.30;100025.78;5549380;32;34850;-55
2022/05/30 05:42:31;;;;;;;5.35;2.60;;;;;;;15.67;63.20;100027.84;5559246;32;32739;-56
2022/05/30 05:45:38;;;;;;;5.93;2.92;;;;;;;15.82;63.38;100030.00;5565266;32;34619;-55
2022/05/30 05:48:41;;;;;;;7.97;2.58;;;;;;;15.84;64.18;100035.12;5565004;32;34291;-56
2022/05/30 05:51:43;;;;;;;4.87;2.15;;;;;;;15.85;62.41;100034.00;5564986;32;33260;-56
2022/05/30 05:54:45;;;;;;;5.47;2.08;;;;;;;15.77;62.85;100035.62;5566324;32;34311;-56
2022/05/30 05:57:48;;;;;;;4.78;2.35;;;;;;;15.79;62.06;100046.09;5556116;32;33584;-55
2022/05/30 06:00:51;;;;;;;5.00;2.47;;;;;;;15.86;63.88;100035.56;5559682;32;33588;-56
2022/05/30 06:03:56;;;;;;;4.18;2.30;;;;;;;16.06;63.36;100048.38;5567935;31;33485;-55
2022/05/30 06:07:01;;;;;;;7.28;2.15;;;;;;;16.18;61.31;100051.19;5560167;32;34471;-56
2022/05/30 06:10:07;;;;;;;9.55;2.37;;;;;;;16.31;59.29;100052.06;5568220;32;34313;-55
2022/05/30 06:13:10;;;;;;;5.57;2.20;;;;;;;16.29;58.95;100051.63;5564125;31;34359;-56
2022/05/30 06:16:26;;;;;;;4.80;2.00;;;;;;;16.33;58.98;100049.84;5565870;32;34282;-55
2022/05/30 06:19:29;;;;;;;3.92;2.10;;;;;;;16.35;57.94;100055.72;5565978;31;34389;-55
2022/05/30 06:22:32;;;;;;;4.15;2.20;;;;;;;16.42;60.75;100056.00;5567321;32;34415;-55
2022/05/30 06:25:36;;;;;;;3.35;2.35;;;;;;;16.51;63.13;100057.84;5562999;31;32157;-56
2022/05/30 06:28:40;;;;;;;4.65;2.42;;;;;;;16.67;62.21;100051.53;5564908;31;34286;-55
2022/05/30 06:31:43;;;;;;;4.70;1.87;;;;;;;16.62;59.69;100054.47;5565223;31;33454;-56
2022/05/30 06:34:46;;;;;;;5.15;2.58;;;;;;;16.56;59.06;100058.47;5563725;32;33574;-56
2022/05/30 06:37:48;;;;;;;5.85;2.25;;;;;;;16.62;60.37;100050.94;5565238;31;33164;-55
2022/05/30 06:40:51;;;;;;;3.90;2.05;;;;;;;16.61;59.11;100060.97;5566117;31;34085;-56
2022/05/30 06:43:56;;;;;;;3.67;1.95;;;;;;;16.70;59.12;100060.94;5565396;32;34606;-55
2022/05/30 06:47:14;;;;;;;7.82;2.30;;;;;;;16.79;58.44;100075.22;5568592;32;33626;-55
2022/05/30 06:50:27;;;;;;;4.18;2.17;;;;;;;16.88;61.22;100069.75;5565601;32;34370;-56
2022/05/30 06:53:29;;;;;;;5.00;2.67;;;;;;;16.84;63.06;100075.03;5567074;31;33413;-56
2022/05/30 06:58:11;;;;;;;5.93;2.30;;;;;;;16.79;60.34;100072.53;5567352;31;33316;-55
2022/05/30 07:00:04;;;;;;;4.30;2.30;;;;;;;16.94;61.17;100073.84;5562898;32;33803;-57
2022/05/30 07:03:07;;;;;;;3.67;2.33;;;;;;;17.04;59.56;100086.19;5567062;31;34153;-55
2022/05/30 07:06:22;;;;;;;6.25;2.15;;;;;;;17.22;58.94;100074.09;5564730;31;33282;-55
2022/05/30 07:09:24;;;;;;;;;;;;;;;17.30;58.98;100075.94;5551914;32;33622;-55
2022/05/30 07:12:27;;;;;;;4.72;2.60;;;;;;;17.38;59.81;100075.06;5567635;32;33922;-56
2022/05/30 07:15:31;;;;;;;4.32;2.78;;;;;;;17.52;59.10;100074.00;5568202;32;33317;-55
2022/05/30 07:18:35;;;;;;;4.55;1.80;;;;;;;17.60;58.15;100073.09;5566329;32;33669;-55
2022/05/30 07:21:39;;;;;;;5.25;1.95;;;;;;;17.68;56.46;100072.25;5568126;31;34631;-56
2022/05/30 07:24:47;;;;;;;4.20;2.08;;;;;;;17.67;54.51;100076.06;5566170;31;34239;-55
2022/05/30 07:27:54;;;;;;;4.55;2.05;;;;;;;17.72;53.95;100065.00;5562702;31;31970;-55
2022/05/30 07:31:12;;;;;;;7.30;2.58;;;;;;;17.78;54.98;100069.12;5564230;32;34333;-55
2022/05/30 07:34:22;;;;;;;7.07;2.70;;;;;;;17.68;51.35;100060.56;5567517;32;33341;-56
2022/05/30 07:37:28;;;;;;;3.62;2.53;;;;;;;17.70;51.41;100063.75;5566303;31;33217;-55
2022/05/30 07:40:31;;;;;;;4.47;2.40;;;;;;;17.86;52.31;100070.16;5565671;31;33447;-55
2022/05/30 07:43:34;;;;;;;3.78;2.08;;;;;;;17.78;52.56;100076.44;5566433;32;33783;-55
2022/05/30 07:46:39;;;;;;;5.37;2.03;;;;;;;17.64;52.48;100078.66;5566072;32;33716;-55
2022/05/30 07:49:41;;;;;;;6.60;2.30;;;;;;;17.65;56.73;100074.78;5568226;31;33314;-55
2022/05/30 07:52:44;;;;;;;5.40;2.20;;;;;;;17.77;59.03;100078.38;5568282;31;34338;-56
2022/05/30 07:55:47;;;;;;;4.82;1.85;;;;;;;17.92;54.62;100076.16;5567883;31;33971;-55
2022/05/30 07:58:50;;;;;;;3.35;1.83;;;;;;;17.96;54.65;100068.91;5567772;32;34316;-55
2022/05/30 08:01:53;;;;;;;3.45;1.92;;;;;;;18.01;51.66;100074.13;5568423;32;34258;-55
2022/05/30 08:04:55;;;;;;;5.07;2.22;;;;;;;18.00;51.44;100083.38;5568105;32;34053;-55
2022/05/30 08:08:03;;;;;;;4.12;1.98;;;;;;;18.06;50.10;100079.31;5563991;31;33346;-56
2022/05/30 08:11:07;;;;;;;5.18;2.62;;;;;;;18.09;50.21;100073.22;5567578;32;34515;-55
2022/05/30 08:14:11;;;;;;;5.85;2.42;;;;;;;18.02;50.61;100076.50;5567746;32;33278;-56
2022/05/30 08:17:14;;;;;;;3.15;2.20;;;;;;;18.02;50.32;100079.22;5567518;31;34118;-55
2022/05/30 08:20:19;;;;;;;7.45;2.15;;;;;;;18.15;50.21;100076.53;5563867;32;33620;-56
2022/05/30 08:23:23;;;;;;;9.65;2.30;;;;;;;18.14;50.69;100081.13;5548387;32;33374;-55
2022/05/30 08:26:26;;;;;;;6.22;2.10;;;;;;;18.28;49.99;100087.03;5548094;32;33238;-56
2022/05/30 08:29:30;;;;;;;4.55;2.00;;;;;;;18.29;49.58;100096.75;5565660;32;33415;-55
2022/05/30 08:32:34;;;;;;;7.40;1.90;;;;;;;18.38;52.35;100102.06;5567643;31;34135;-55
2022/05/30 08:35:42;;;;;;;5.07;1.95;;;;;;;18.39;52.31;100102.88;5567908;31;33260;-55
2022/05/30 08:38:44;;;;;;;3.37;2.03;;;;;;;18.36;51.18;100109.75;5567327;31;33425;-55
2022/05/30 08:41:46;;;;;;;2.72;1.80;;;;;;;18.47;60.83;100110.09;5567853;32;33349;-56
2022/05/30 08:44:50;;;;;;;3.08;1.60;;;;;;;18.60;54.13;100103.53;5569948;31;33661;-55
2022/05/30 08:47:56;;;;;;;3.55;1.90;;;;;;;18.76;51.77;100090.09;5570500;31;33884;-55
2022/05/30 08:51:15;;;;;;;5.78;1.90;;;;;;;18.87;52.74;100082.25;5570432;31;34302;-55
2022/05/30 08:54:28;;;;;;;3.30;1.70;;;;;;;18.97;48.04;100076.34;5570234;31;33249;-55
2022/05/30 08:57:48;;;;;;;4.57;1.80;;;;;;;18.94;51.59;100077.84;5570202;31;34222;-55
2022/05/30 09:00:54;;;;;;;6.43;2.20;;;;;;;18.99;46.33;100091.16;5569277;31;34189;-55
2022/05/30 09:04:08;;;;;;;8.07;1.92;;;;;;;19.02;47.93;100090.47;5569881;31;33421;-55
2022/05/30 09:07:20;;;;;;;3.83;1.77;;;;;;;19.18;44.81;100100.63;5565848;32;33340;-56
2022/05/30 09:10:32;;;;;;;4.15;1.73;;;;;;;19.36;44.69;100095.69;5569738;31;33319;-56
2022/05/30 09:13:40;;;;;;;4.15;1.80;;;;;;;19.39;45.74;100111.31;5570343;32;34088;-56
2022/05/30 09:16:53;;;;;;;8.63;2.15;;;;;;;19.49;47.05;100103.44;5570310;31;33369;-55
2022/05/30 09:19:57;;;;;;;12.65;2.75;;;;;;;19.44;45.07;100106.41;5570089;32;33286;-55
2022/05/30 09:23:04;;;;;;;3.65;1.85;;;;;;;19.20;44.58;100099.16;5569357;31;34434;-56
2022/05/30 09:26:12;;;;;;;4.12;1.75;;;;;;;19.39;50.02;100100.44;5565352;32;33428;-55
2022/05/30 09:29:21;;;;;;;2.15;1.50;;;;;;;19.55;49.94;100092.31;5569767;31;33238;-55
2022/05/30 09:32:39;;;;;;;6.15;1.90;;;;;;;19.29;44.76;100107.16;5569799;31;33221;-55
2022/05/30 09:35:46;;;;;;;7.45;2.03;;;;;;;19.30;50.49;100105.22;5568842;31;34240;-55
2022/05/30 09:39:01;;;;;;;2.58;1.50;;;;;;;19.27;53.65;100111.34;5569547;32;34235;-56
2022/05/30 09:42:05;;;;;;;6.53;1.98;;;;;;;19.29;48.40;100111.78;5570293;31;34400;-55
2022/05/30 09:45:14;;;;;;;2.87;1.70;;;;;;;19.31;44.76;100112.25;5569457;31;34984;-55
2022/05/30 09:48:19;;;;;;;3.97;1.50;;;;;;;19.44;48.67;100100.97;5568518;31;34109;-55
2022/05/30 09:51:43;;;;;;;5.50;2.00;;;;;;;19.57;51.16;100106.34;5569195;31;33207;-55
2022/05/30 09:54:45;;;;;;;3.92;1.73;;;;;;;19.59;48.23;100120.41;5569784;31;33360;-55
2022/05/30 09:57:48;;;;;;;5.68;2.10;;;;;;;19.41;44.97;100114.47;5569801;32;33287;-55
2022/05/30 10:00:53;;;;;;;5.20;1.95;;;;;;;19.27;46.97;100119.50;5569850;32;33631;-55
2022/05/30 10:04:13;;;;;;;4.10;1.77;;;;;;;19.18;46.40;100128.59;5569900;31;33526;-55
2022/05/30 10:07:19;;;;;;;2.70;1.58;;;;;;;19.10;45.43;100126.78;5570197;32;33757;-56
2022/05/30 10:10:31;;;;;;;3.05;1.77;;;;;;;19.06;45.67;100125.91;5569636;31;33284;-56
2022/05/30 10:13:41;;;;;;;3.78;1.90;;;;;;;19.02;45.83;100131.22;5569672;31;34601;-55
2022/05/30 10:16:49;;;;;;;4.40;1.75;;;;;;;19.05;48.73;100132.47;5569649;31;33327;-55
2022/05/30 10:19:55;;;;;;;4.53;1.60;;;;;;;19.43;47.70;100134.72;5569721;32;34526;-55
2022/05/30 10:30:36;;;;;;;2.22;1.50;;;;;;;19.29;45.70;100119.94;5569444;32;34391;-56
2022/05/30 10:33:58;;;;;;;4.03;1.80;;;;;;;19.36;47.67;100129.09;5569569;31;34737;-55
2022/05/30 10:37:13;;;;;;;2.12;1.60;;;;;;;19.58;46.29;100125.03;5569166;32;33720;-55
2022/05/30 10:40:53;;;;;;;2.75;1.70;;;;;;;19.65;44.45;100135.34;5569297;31;33483;-55
2022/05/30 10:44:30;;;;;;;5.45;2.03;;;;;;;19.76;47.61;100135.63;5565077;32;34494;-56
2022/05/30 10:47:39;;;;;;;2.47;1.48;;;;;;;19.71;42.84;100139.41;5552921;32;33542;-55
2022/05/30 10:50:53;;;;;;;3.67;1.67;;;;;;;19.65;45.98;100133.41;5549549;32;33329;-55
2022/05/30 10:53:58;;;;;;;4.00;1.87;;;;;;;19.58;45.71;100141.38;5549999;32;34242;-55
2022/05/30 10:57:25;;;;;;;2.08;1.52;;;;;;;19.73;46.06;100139.84;5549626;32;34399;-55
2022/05/30 11:00:34;;;;;;;2.80;1.60;;;;;;;19.53;43.89;100141.59;5549936;32;33520;-55
2022/05/30 11:04:30;;;;;;;5.43;1.90;;;;;;;19.58;45.04;100132.41;5549987;32;33442;-56
2022/05/30 11:07:38;;;;;;;;;;;;;;;19.60;45.37;100132.84;5541420;32;33537;-55
2022/05/30 11:11:25;;;;;;;2.97;1.73;;;;;;;19.65;45.19;100149.75;5549606;32;34000;-55
2022/05/30 11:14:45;;;;;;;9.38;2.30;;;;;;;19.69;44.93;100152.56;5549644;32;33463;-55
2022/05/30 11:18:28;;;;;;;4.70;1.83;;;;;;;19.71;44.15;100153.78;5549791;32;33016;-55
2022/05/30 11:21:39;;;;;;;5.12;1.70;;;;;;;19.56;42.67;100170.81;5548622;32;33423;-55
2022/05/30 11:24:46;;;;;;;2.80;1.75;;;;;;;19.57;43.21;100163.44;5566911;32;33191;-55
2022/05/30 11:28:02;;;;;;;7.95;2.10;;;;;;;19.55;44.79;100174.69;5569230;32;34282;-56
2022/05/30 11:31:27;;;;;;;5.40;1.75;;;;;;;19.45;44.01;100169.72;5568945;32;34314;-56
2022/05/30 11:34:50;;;;;;;5.22;1.85;;;;;;;19.41;43.99;100180.50;5564144;32;33760;-55
2022/05/30 11:37:52;;;;;;;3.97;1.50;;;;;;;19.34;45.65;100172.16;5560311;32;33662;-55
2022/05/30 11:41:08;;;;;;;4.25;1.83;;;;;;;19.28;45.76;100162.66;5551457;32;32421;-55
2022/05/30 11:44:22;;;;;;;3.12;1.67;;;;;;;19.22;46.95;100170.25;5549325;32;34517;-56
2022/05/30 11:47:31;;;;;;;4.22;1.62;;;;;;;19.30;51.30;100165.00;5549558;32;33464;-55
2022/05/30 11:50:36;;;;;;;5.07;1.70;;;;;;;19.45;46.37;100170.53;5549390;32;33593;-55
2022/05/30 11:54:15;;;;;;;3.33;1.87;;;;;;;19.41;45.86;100163.41;5562227;32;33585;-55
2022/05/30 11:57:45;;;;;;;5.60;1.62;;;;;;;19.41;45.01;100157.97;5568792;32;33762;-56
2022/05/30 12:00:49;;;;;;;6.05;1.60;;;;;;;19.46;46.06;100155.00;5568631;32;33820;-56
2022/05/30 12:04:33;;;;;;;3.70;1.92;;;;;;;19.60;45.31;100162.75;5568616;32;34302;-55
2022/05/30 12:08:05;;;;;;;4.80;1.87;;;;;;;19.67;43.56;100163.00;5568598;32;34358;-55
2022/05/30 12:11:22;;;;;;;9.27;1.98;;;;;;;19.59;42.71;100170.13;5568361;32;33152;-56
2022/05/30 12:15:09;;;;;;;6.85;2.35;;;;;;;19.52;43.60;100163.69;5568225;32;34354;-55
2022/05/30 12:25:35;;;;;;;5.30;1.85;;;;;;;19.29;43.47;100166.94;5571009;32;34595;-55
2022/05/30 12:28:37;;;;;;;3.37;2.00;;;;;;;19.17;44.53;100165.06;5570853;32;33859;-56
2022/05/30 12:31:40;;;;;;;4.05;1.70;;;;;;;19.33;45.56;100173.25;5570823;32;33652;-56
2022/05/30 12:34:57;;;;;;;3.53;1.80;;;;;;;19.19;45.32;100167.41;5570781;32;34304;-55
2022/05/30 12:38:03;;;;;;;3.97;1.65;;;;;;;19.21;44.17;100162.44;5570714;32;34374;-55
2022/05/30 12:41:45;;;;;;;3.73;2.00;;;;;;;19.13;43.75;100166.06;5570702;32;34225;-55
2022/05/30 12:44:51;;;;;;;2.67;1.50;;;;;;;19.23;44.73;100157.44;5557385;32;33457;-55
2022/05/30 12:47:54;;;;;;;2.85;1.70;;;;;;;19.21;43.79;100154.28;5570695;32;34230;-55
2022/05/30 12:51:00;;;;;;;5.78;1.92;;;;;;;19.14;44.56;100154.88;5570581;32;34319;-55
2022/05/30 12:54:02;;;;;;;16.45;2.95;;;;;;;19.03;44.02;100161.91;5570494;32;33479;-55
2022/05/30 12:57:11;;;;;;;3.47;1.80;;;;;;;19.02;45.64;100165.75;5570447;32;33815;-55
2022/05/30 13:00:19;;;;;;;5.25;1.92;;;;;;;19.19;43.69;100153.84;5570489;32;33850;-55
2022/05/30 13:03:29;;;;;;;3.50;2.10;;;;;;;19.21;45.02;100154.28;5570584;32;34358;-56
2022/05/30 13:06:52;;;;;;;4.70;1.73;;;;;;;19.24;54.09;100154.38;5570475;32;34331;-55
2022/05/30 13:10:05;;;;;;;4.57;1.98;;;;;;;19.32;46.13;100143.72;5570492;32;33737;-55
2022/05/30 13:13:16;;;;;;;5.75;1.92;;;;;;;19.44;49.56;100160.78;5570008;32;34366;-55
2022/05/30 13:16:30;;;;;;;4.82;2.03;;;;;;;19.36;53.58;100144.59;5570153;32;33731;-55
2022/05/30 13:19:41;;;;;;;5.78;1.90;;;;;;;19.43;43.88;100150.25;5562269;32;33828;-56
2022/05/30 13:22:57;;;;;;;5.50;1.85;;;;;;;19.35;45.64;100154.69;5569975;32;33654;-55
2022/05/30 13:26:01;;;;;;;6.62;2.03;;;;;;;19.31;45.29;100153.03;5570170;32;34391;-55
2022/05/30 13:29:03;;;;;;;4.62;1.77;;;;;;;19.17;45.76;100162.34;5569896;32;33682;-55
2022/05/30 13:32:16;;;;;;;4.53;1.80;;;;;;;19.20;45.54;100155.41;5569881;32;34303;-55
2022/05/30 13:35:25;;;;;;;4.78;1.90;;;;;;;19.29;44.65;100160.72;5569851;32;33717;-56
2022/05/30 13:38:42;;;;;;;6.50;2.10;;;;;;;19.19;44.99;100161.97;5568761;32;33809;-56
2022/05/30 13:41:44;;;;;;;2.65;1.70;;;;;;;19.23;46.13;100160.16;5569670;32;33763;-55
2022/05/30 13:45:01;;;;;;;2.47;1.75;;;;;;;19.06;45.86;100168.56;5569962;32;33735;-55
2022/05/30 13:48:09;;;;;;;3.12;1.77;;;;;;;19.18;53.26;100176.72;5570221;32;33717;-55
2022/05/30 13:51:34;;;;;;;3.28;2.12;;;;;;;19.29;45.62;100172.37;5570210;32;33707;-55
2022/05/30 13:54:41;;;;;;;3.47;1.90;;;;;;;19.18;45.12;100171.28;5569585;32;33611;-55
2022/05/30 13:57:43;;;;;;;7.05;2.28;;;;;;;19.18;44.86;100171.28;5569990;32;33669;-55
2022/05/30 14:00:45;;;;;;;9.82;2.80;;;;;;;19.17;46.25;100178.66;5569636;32;33804;-55
2022/05/30 14:03:52;;;;;;;5.57;2.05;;;;;;;19.24;47.08;100165.25;5569630;32;34315;-55
2022/05/30 14:06:54;;;;;;;5.97;2.00;;;;;;;19.48;46.61;100169.03;5569892;32;34207;-55
2022/05/30 14:09:58;;;;;;;5.40;1.80;;;;;;;19.46;46.25;100163.94;5569821;32;33575;-56
2022/05/30 14:13:01;;;;;;;3.87;1.80;;;;;;;19.42;46.15;100168.47;5569796;32;33862;-55
2022/05/30 14:16:07;;;;;;;5.35;2.28;;;;;;;19.39;46.40;100188.19;5569890;32;34458;-56
2022/05/30 14:19:22;;;;;;;6.22;2.40;;;;;;;19.57;52.72;100191.44;5569427;32;34533;-55
2022/05/30 14:22:25;;;;;;;;;;;;;;;19.71;54.15;100191.09;5569844;32;33741;-56
2022/05/30 14:25:31;;;;;;;9.68;2.40;;;;;;;19.88;56.15;100196.22;5569931;32;33964;-55
2022/05/30 14:28:49;;;;;;;7.00;2.25;;;;;;;19.89;54.05;100192.34;5569597;32;34325;-55
2022/05/30 14:32:08;;;;;;;5.95;2.55;;;;;;;19.65;54.86;100193.25;5569473;32;34424;-56
2022/05/30 14:35:21;;;;;;;3.60;2.50;;;;;;;19.82;55.14;100196.81;5569283;32;34026;-56
2022/05/30 14:38:38;;;;;;;3.83;2.50;;;;;;;19.71;55.79;100197.31;5569698;32;33174;-55
2022/05/30 14:41:53;;;;;;;4.50;2.72;;;;;;;19.83;56.27;100199.16;5568320;32;34363;-55
2022/05/30 14:45:04;;;;;;;7.07;2.85;;;;;;;19.63;57.04;100203.66;5569525;32;34108;-56
2022/05/30 14:48:14;;;;;;;4.95;3.47;;;;;;;19.65;56.01;100212.28;5569796;32;34448;-55
2022/05/30 14:51:21;;;;;;;4.03;2.70;;;;;;;19.47;56.01;100213.69;5569452;32;33822;-55
2022/05/30 14:54:34;;;;;;;8.60;2.92;;;;;;;19.14;56.49;100222.81;5569457;32;33597;-55
2022/05/30 14:57:45;;;;;;;5.22;2.80;;;;;;;19.15;57.72;100204.56;5569360;32;33298;-55
2022/05/30 15:00:58;;;;;;;5.10;2.40;;;;;;;19.29;58.01;100204.19;5569207;32;33617;-55
2022/05/30 15:04:02;;;;;;;5.68;3.12;;;;;;;19.27;58.94;100201.84;5569271;32;33555;-55
